PHTO/ITO METAR and TAF weather

Enter ICAO airport designator
Station Type Date Time Source
PHTO METAR 2020/06/01 16:53 UTC NOAA

PHTO 011653Z 18003KT 10SM SCT006 BKN030 OVC037 23/21 A3005 RMK AO2 RAB20E34 SLP174 P0000 T02280206


Station Type Date Time Source
PHTO Decoded METAR 2020/06/01 16:53 UTC NOAA

HILO INTERNATIONAL AIRPORT, HI, United States (PHTO) 19-43N 155-03W 12M
Jun 01, 2020 - 12:53 PM EDT / 2020.06.01 1653 UTC
Wind: from the S (180 degrees) at 3 MPH (3 KT):0
Visibility: 10 mile(s):0
Sky conditions: overcast
Precipitation last hour: A trace
Temperature: 73.0 F (22.8 C)
Dew Point: 69.1 F (20.6 C)
Relative Humidity: 87%
Pressure (altimeter): 30.05 in. Hg (1017 hPa)
ob: PHTO 011653Z 18003KT 10SM SCT006 BKN030 OVC037 23/21 A3005 RMK AO2 RAB20E34 SLP174 P0000 T02280206
cycle: 17

Station Type Date Time Source
PHTO TAF 2020/06/01 17:45 UTC NOAA

TAF
AMD PHTO 011642Z 0117/0212 28004KT P6SM VCSH SCT020 OVC035
TEMPO 0116/0118 3SM -RA SCT010 OVC025
FM012100 03010KT P6SM VCSH SCT030 OVC045
FM020600 24004KT P6SM SCT020 BKN035

Example: see airport list